Terminal Aerodrome Forecast
Issued by NWS

Home | Current Version | Previous Version | Text Only | Print | Product List | Glossary On
Versions: 1 2 3 4 5 6 7 8 9 10 11 12 13 14 15 16 17 18 19
624
FTUS41 KILN 221738 AAA
TAFLUK
TAF AMD
KLUK 221738Z 2218/2318 18013G22KT P6SM -SHRA OVC040
     FM222300 18012G23KT P6SM VCSH OVC028
     FM230700 23011G18KT P6SM OVC060
     FM230900 23011KT P6SM OVC080
     FM231300 23012G20KT P6SM OVC040
     FM231600 24015G25KT P6SM OVC028=

USA.gov is the U.S. government's official web portal to all federal, state and local government web resources and services.